sensor_id;sensor_type;location;lat;lon;timestamp;P1;durP1;ratioP1;P2;durP2;ratioP2
10979;SDS011;5543;51.734;8.744;2023-04-29T00:00:24;1.55;;;1.45;;
10979;SDS011;5543;51.734;8.744;2023-04-29T00:02:52;1.60;;;1.45;;
10979;SDS011;5543;51.734;8.744;2023-04-29T00:05:21;2.08;;;1.65;;
10979;SDS011;5543;51.734;8.744;2023-04-29T00:07:49;1.77;;;1.65;;
10979;SDS011;5543;51.734;8.744;2023-04-29T00:10:18;2.15;;;1.80;;
10979;SDS011;5543;51.734;8.744;2023-04-29T00:12:46;2.05;;;1.85;;
10979;SDS011;5543;51.734;8.744;2023-04-29T00:15:18;2.30;;;2.10;;
10979;SDS011;5543;51.734;8.744;2023-04-29T00:17:46;1.85;;;1.67;;
10979;SDS011;5543;51.734;8.744;2023-04-29T00:20:14;2.28;;;1.60;;
10979;SDS011;5543;51.734;8.744;2023-04-29T00:22:43;1.70;;;1.55;;
10979;SDS011;5543;51.734;8.744;2023-04-29T00:25:11;1.85;;;1.52;;
10979;SDS011;5543;51.734;8.744;2023-04-29T00:27:39;2.35;;;1.80;;
10979;SDS011;5543;51.734;8.744;2023-04-29T00:30:08;1.58;;;1.48;;
10979;SDS011;5543;51.734;8.744;2023-04-29T00:32:43;1.70;;;1.55;;
10979;SDS011;5543;51.734;8.744;2023-04-29T00:35:12;2.00;;;1.80;;
10979;SDS011;5543;51.734;8.744;2023-04-29T00:37:40;1.90;;;1.60;;
10979;SDS011;5543;51.734;8.744;2023-04-29T00:40:08;2.72;;;1.95;;
10979;SDS011;5543;51.734;8.744;2023-04-29T00:42:40;1.80;;;1.70;;
10979;SDS011;5543;51.734;8.744;2023-04-29T00:45:09;1.67;;;1.52;;
10979;SDS011;5543;51.734;8.744;2023-04-29T00:47:37;1.92;;;1.55;;
10979;SDS011;5543;51.734;8.744;2023-04-29T00:50:07;2.50;;;2.00;;
10979;SDS011;5543;51.734;8.744;2023-04-29T00:52:36;2.53;;;2.15;;
10979;SDS011;5543;51.734;8.744;2023-04-29T00:55:05;2.70;;;1.88;;
10979;SDS011;5543;51.734;8.744;2023-04-29T00:57:35;2.00;;;1.60;;
10979;SDS011;5543;51.734;8.744;2023-04-29T01:00:05;2.50;;;2.10;;
10979;SDS011;5543;51.734;8.744;2023-04-29T01:02:35;2.65;;;2.08;;
10979;SDS011;5543;51.734;8.744;2023-04-29T01:05:04;1.90;;;1.67;;
10979;SDS011;5543;51.734;8.744;2023-04-29T01:07:36;2.80;;;2.53;;
10979;SDS011;5543;51.734;8.744;2023-04-29T01:10:13;3.50;;;1.92;;
10979;SDS011;5543;51.734;8.744;2023-04-29T01:12:48;2.90;;;2.08;;
10979;SDS011;5543;51.734;8.744;2023-04-29T01:15:27;2.55;;;1.90;;
10979;SDS011;5543;51.734;8.744;2023-04-29T01:18:03;2.35;;;2.15;;
10979;SDS011;5543;51.734;8.744;2023-04-29T01:20:35;2.90;;;2.20;;
10979;SDS011;5543;51.734;8.744;2023-04-29T01:23:05;2.55;;;2.35;;
10979;SDS011;5543;51.734;8.744;2023-04-29T01:25:35;2.67;;;2.30;;
10979;SDS011;5543;51.734;8.744;2023-04-29T01:28:05;2.55;;;2.13;;
10979;SDS011;5543;51.734;8.744;2023-04-29T01:30:41;3.60;;;2.95;;
10979;SDS011;5543;51.734;8.744;2023-04-29T01:33:18;3.55;;;2.65;;
10979;SDS011;5543;51.734;8.744;2023-04-29T01:35:59;4.43;;;3.05;;
10979;SDS011;5543;51.734;8.744;2023-04-29T01:38:35;5.07;;;2.58;;
10979;SDS011;5543;51.734;8.744;2023-04-29T01:41:12;2.72;;;2.33;;
10979;SDS011;5543;51.734;8.744;2023-04-29T01:43:42;2.97;;;2.53;;
10979;SDS011;5543;51.734;8.744;2023-04-29T01:46:16;2.72;;;1.80;;
10979;SDS011;5543;51.734;8.744;2023-04-29T01:48:45;2.53;;;2.33;;
10979;SDS011;5543;51.734;8.744;2023-04-29T01:51:13;2.42;;;2.22;;
10979;SDS011;5543;51.734;8.744;2023-04-29T01:53:41;4.07;;;3.17;;
10979;SDS011;5543;51.734;8.744;2023-04-29T01:56:11;4.20;;;2.70;;
10979;SDS011;5543;51.734;8.744;2023-04-29T01:58:39;4.13;;;2.60;;
10979;SDS011;5543;51.734;8.744;2023-04-29T02:01:07;5.25;;;3.25;;
10979;SDS011;5543;51.734;8.744;2023-04-29T02:03:35;4.72;;;3.00;;
10979;SDS011;5543;51.734;8.744;2023-04-29T02:06:04;3.58;;;2.25;;
10979;SDS011;5543;51.734;8.744;2023-04-29T02:08:33;3.10;;;2.55;;
10979;SDS011;5543;51.734;8.744;2023-04-29T02:11:01;4.13;;;2.88;;
10979;SDS011;5543;51.734;8.744;2023-04-29T02:13:31;3.17;;;2.70;;
10979;SDS011;5543;51.734;8.744;2023-04-29T02:16:05;3.30;;;2.33;;
10979;SDS011;5543;51.734;8.744;2023-04-29T02:18:34;3.65;;;3.15;;
10979;SDS011;5543;51.734;8.744;2023-04-29T02:21:03;7.82;;;3.45;;
10979;SDS011;5543;51.734;8.744;2023-04-29T02:23:31;5.03;;;3.08;;
10979;SDS011;5543;51.734;8.744;2023-04-29T02:25:59;6.47;;;3.28;;
10979;SDS011;5543;51.734;8.744;2023-04-29T02:28:30;4.30;;;3.33;;
10979;SDS011;5543;51.734;8.744;2023-04-29T02:30:58;3.92;;;2.65;;
10979;SDS011;5543;51.734;8.744;2023-04-29T02:33:26;3.88;;;3.20;;
10979;SDS011;5543;51.734;8.744;2023-04-29T02:35:54;5.95;;;3.63;;
10979;SDS011;5543;51.734;8.744;2023-04-29T02:38:22;3.83;;;2.65;;
10979;SDS011;5543;51.734;8.744;2023-04-29T02:40:50;6.13;;;3.53;;
10979;SDS011;5543;51.734;8.744;2023-04-29T02:43:19;3.58;;;3.25;;
10979;SDS011;5543;51.734;8.744;2023-04-29T02:45:48;3.95;;;3.55;;
10979;SDS011;5543;51.734;8.744;2023-04-29T02:48:16;4.97;;;2.97;;
10979;SDS011;5543;51.734;8.744;2023-04-29T02:50:44;5.25;;;3.10;;
10979;SDS011;5543;51.734;8.744;2023-04-29T02:53:12;5.97;;;3.97;;
10979;SDS011;5543;51.734;8.744;2023-04-29T02:55:41;4.53;;;3.63;;
10979;SDS011;5543;51.734;8.744;2023-04-29T02:58:09;7.18;;;4.13;;
10979;SDS011;5543;51.734;8.744;2023-04-29T03:00:39;5.15;;;4.05;;
10979;SDS011;5543;51.734;8.744;2023-04-29T03:03:09;5.55;;;4.50;;
10979;SDS011;5543;51.734;8.744;2023-04-29T03:05:37;6.35;;;3.63;;
10979;SDS011;5543;51.734;8.744;2023-04-29T03:08:05;4.68;;;3.53;;
10979;SDS011;5543;51.734;8.744;2023-04-29T03:10:35;4.82;;;3.00;;
10979;SDS011;5543;51.734;8.744;2023-04-29T03:13:07;5.57;;;3.60;;
10979;SDS011;5543;51.734;8.744;2023-04-29T03:15:35;6.28;;;4.22;;
10979;SDS011;5543;51.734;8.744;2023-04-29T03:18:04;6.97;;;3.97;;
10979;SDS011;5543;51.734;8.744;2023-04-29T03:20:34;5.13;;;3.70;;
10979;SDS011;5543;51.734;8.744;2023-04-29T03:23:02;6.13;;;3.80;;
10979;SDS011;5543;51.734;8.744;2023-04-29T03:25:30;5.38;;;3.00;;
10979;SDS011;5543;51.734;8.744;2023-04-29T03:27:58;5.30;;;2.95;;
10979;SDS011;5543;51.734;8.744;2023-04-29T03:30:26;6.70;;;3.97;;
10979;SDS011;5543;51.734;8.744;2023-04-29T03:32:54;5.85;;;3.17;;
10979;SDS011;5543;51.734;8.744;2023-04-29T03:35:23;4.30;;;3.28;;
10979;SDS011;5543;51.734;8.744;2023-04-29T03:37:52;6.95;;;4.13;;
10979;SDS011;5543;51.734;8.744;2023-04-29T03:40:21;3.58;;;2.83;;
10979;SDS011;5543;51.734;8.744;2023-04-29T03:42:49;2.53;;;1.75;;
10979;SDS011;5543;51.734;8.744;2023-04-29T03:45:17;4.13;;;3.40;;
10979;SDS011;5543;51.734;8.744;2023-04-29T03:47:45;3.78;;;3.33;;
10979;SDS011;5543;51.734;8.744;2023-04-29T03:50:13;3.45;;;2.95;;
10979;SDS011;5543;51.734;8.744;2023-04-29T03:52:42;2.50;;;1.73;;
10979;SDS011;5543;51.734;8.744;2023-04-29T03:55:11;4.63;;;3.35;;
10979;SDS011;5543;51.734;8.744;2023-04-29T03:57:39;3.53;;;2.53;;
10979;SDS011;5543;51.734;8.744;2023-04-29T04:00:08;2.55;;;2.08;;
10979;SDS011;5543;51.734;8.744;2023-04-29T04:02:37;3.22;;;2.50;;
10979;SDS011;5543;51.734;8.744;2023-04-29T04:05:05;5.03;;;2.67;;
10979;SDS011;5543;51.734;8.744;2023-04-29T04:07:34;3.90;;;2.47;;
10979;SDS011;5543;51.734;8.744;2023-04-29T04:10:02;3.65;;;2.80;;
10979;SDS011;5543;51.734;8.744;2023-04-29T04:12:32;2.67;;;1.90;;
10979;SDS011;5543;51.734;8.744;2023-04-29T04:15:00;4.30;;;2.78;;
10979;SDS011;5543;51.734;8.744;2023-04-29T04:17:29;2.42;;;2.22;;
10979;SDS011;5543;51.734;8.744;2023-04-29T04:19:57;2.78;;;1.65;;
10979;SDS011;5543;51.734;8.744;2023-04-29T04:22:25;4.28;;;2.55;;
10979;SDS011;5543;51.734;8.744;2023-04-29T04:24:53;5.07;;;3.10;;
10979;SDS011;5543;51.734;8.744;2023-04-29T04:27:22;2.92;;;2.25;;
10979;SDS011;5543;51.734;8.744;2023-04-29T04:29:53;4.07;;;2.28;;
10979;SDS011;5543;51.734;8.744;2023-04-29T04:32:21;4.43;;;2.75;;
10979;SDS011;5543;51.734;8.744;2023-04-29T04:34:50;3.65;;;2.30;;
10979;SDS011;5543;51.734;8.744;2023-04-29T04:37:18;3.03;;;2.22;;
10979;SDS011;5543;51.734;8.744;2023-04-29T04:39:46;5.03;;;3.00;;
10979;SDS011;5543;51.734;8.744;2023-04-29T04:42:14;4.75;;;2.58;;
10979;SDS011;5543;51.734;8.744;2023-04-29T04:44:42;4.22;;;3.33;;
10979;SDS011;5543;51.734;8.744;2023-04-29T04:47:12;3.58;;;2.65;;
10979;SDS011;5543;51.734;8.744;2023-04-29T04:49:40;2.80;;;2.15;;
10979;SDS011;5543;51.734;8.744;2023-04-29T04:52:09;6.45;;;2.80;;
10979;SDS011;5543;51.734;8.744;2023-04-29T04:54:37;4.25;;;2.55;;
10979;SDS011;5543;51.734;8.744;2023-04-29T04:57:05;3.47;;;2.53;;
10979;SDS011;5543;51.734;8.744;2023-04-29T04:59:33;3.88;;;2.88;;
10979;SDS011;5543;51.734;8.744;2023-04-29T05:02:01;5.10;;;2.50;;
10979;SDS011;5543;51.734;8.744;2023-04-29T05:04:31;4.07;;;2.50;;
10979;SDS011;5543;51.734;8.744;2023-04-29T05:06:59;4.03;;;2.83;;
10979;SDS011;5543;51.734;8.744;2023-04-29T05:09:27;4.60;;;2.90;;
10979;SDS011;5543;51.734;8.744;2023-04-29T05:11:56;4.30;;;2.53;;
10979;SDS011;5543;51.734;8.744;2023-04-29T05:14:24;4.38;;;3.08;;
10979;SDS011;5543;51.734;8.744;2023-04-29T05:16:52;2.35;;;2.13;;
10979;SDS011;5543;51.734;8.744;2023-04-29T05:19:25;4.30;;;3.17;;
10979;SDS011;5543;51.734;8.744;2023-04-29T05:21:54;4.00;;;2.72;;
10979;SDS011;5543;51.734;8.744;2023-04-29T05:24:22;2.90;;;2.13;;
10979;SDS011;5543;51.734;8.744;2023-04-29T05:26:51;1.88;;;1.42;;
10979;SDS011;5543;51.734;8.744;2023-04-29T05:29:19;2.83;;;2.03;;
10979;SDS011;5543;51.734;8.744;2023-04-29T05:31:47;2.33;;;1.77;;
10979;SDS011;5543;51.734;8.744;2023-04-29T05:34:15;3.10;;;2.50;;
10979;SDS011;5543;51.734;8.744;2023-04-29T05:36:43;2.90;;;2.25;;
10979;SDS011;5543;51.734;8.744;2023-04-29T05:39:13;4.57;;;2.55;;
10979;SDS011;5543;51.734;8.744;2023-04-29T05:41:42;2.75;;;2.20;;
10979;SDS011;5543;51.734;8.744;2023-04-29T05:44:10;3.20;;;2.10;;
10979;SDS011;5543;51.734;8.744;2023-04-29T05:46:38;4.93;;;2.97;;
10979;SDS011;5543;51.734;8.744;2023-04-29T05:49:06;3.55;;;2.25;;
10979;SDS011;5543;51.734;8.744;2023-04-29T05:51:35;4.00;;;2.72;;
10979;SDS011;5543;51.734;8.744;2023-04-29T05:54:03;5.45;;;3.80;;
10979;SDS011;5543;51.734;8.744;2023-04-29T05:56:33;4.05;;;2.88;;
10979;SDS011;5543;51.734;8.744;2023-04-29T05:59:01;3.90;;;3.08;;
10979;SDS011;5543;51.734;8.744;2023-04-29T06:01:29;2.42;;;2.13;;
10979;SDS011;5543;51.734;8.744;2023-04-29T06:03:58;2.50;;;2.17;;
10979;SDS011;5543;51.734;8.744;2023-04-29T06:06:26;4.03;;;2.80;;
10979;SDS011;5543;51.734;8.744;2023-04-29T06:08:55;3.97;;;3.35;;
10979;SDS011;5543;51.734;8.744;2023-04-29T06:11:23;4.05;;;3.22;;
10979;SDS011;5543;51.734;8.744;2023-04-29T06:13:52;3.92;;;2.47;;
10979;SDS011;5543;51.734;8.744;2023-04-29T06:16:20;4.35;;;3.25;;
10979;SDS011;5543;51.734;8.744;2023-04-29T06:18:48;3.53;;;2.63;;
10979;SDS011;5543;51.734;8.744;2023-04-29T06:21:17;4.15;;;3.45;;
10979;SDS011;5543;51.734;8.744;2023-04-29T06:23:45;5.95;;;3.70;;
10979;SDS011;5543;51.734;8.744;2023-04-29T06:26:13;5.55;;;3.97;;
10979;SDS011;5543;51.734;8.744;2023-04-29T06:28:41;5.68;;;3.33;;
10979;SDS011;5543;51.734;8.744;2023-04-29T06:31:11;4.95;;;2.60;;
10979;SDS011;5543;51.734;8.744;2023-04-29T06:33:39;5.00;;;3.60;;
10979;SDS011;5543;51.734;8.744;2023-04-29T06:36:07;4.78;;;3.70;;
10979;SDS011;5543;51.734;8.744;2023-04-29T06:38:35;5.00;;;4.10;;
10979;SDS011;5543;51.734;8.744;2023-04-29T06:41:03;5.28;;;3.88;;
10979;SDS011;5543;51.734;8.744;2023-04-29T06:43:31;3.85;;;2.92;;
10979;SDS011;5543;51.734;8.744;2023-04-29T06:46:00;5.85;;;3.60;;
10979;SDS011;5543;51.734;8.744;2023-04-29T06:48:29;2.85;;;2.35;;
10979;SDS011;5543;51.734;8.744;2023-04-29T06:50:57;3.97;;;3.20;;
10979;SDS011;5543;51.734;8.744;2023-04-29T06:53:26;5.60;;;2.95;;
10979;SDS011;5543;51.734;8.744;2023-04-29T06:55:54;5.00;;;4.50;;
10979;SDS011;5543;51.734;8.744;2023-04-29T06:58:22;4.45;;;3.53;;
10979;SDS011;5543;51.734;8.744;2023-04-29T07:00:50;5.60;;;4.03;;
10979;SDS011;5543;51.734;8.744;2023-04-29T07:03:18;4.88;;;3.17;;
10979;SDS011;5543;51.734;8.744;2023-04-29T07:05:48;4.35;;;3.15;;
10979;SDS011;5543;51.734;8.744;2023-04-29T07:08:16;6.45;;;4.18;;
10979;SDS011;5543;51.734;8.744;2023-04-29T07:10:52;6.22;;;4.05;;
10979;SDS011;5543;51.734;8.744;2023-04-29T07:13:21;3.45;;;2.70;;
10979;SDS011;5543;51.734;8.744;2023-04-29T07:15:49;3.40;;;2.60;;
10979;SDS011;5543;51.734;8.744;2023-04-29T07:18:17;5.63;;;3.33;;
10979;SDS011;5543;51.734;8.744;2023-04-29T07:20:46;5.85;;;3.72;;
10979;SDS011;5543;51.734;8.744;2023-04-29T07:23:17;4.03;;;3.20;;
10979;SDS011;5543;51.734;8.744;2023-04-29T07:25:45;4.47;;;3.42;;
10979;SDS011;5543;51.734;8.744;2023-04-29T07:28:14;4.10;;;2.55;;
10979;SDS011;5543;51.734;8.744;2023-04-29T07:30:42;2.15;;;1.95;;
10979;SDS011;5543;51.734;8.744;2023-04-29T07:33:10;3.08;;;2.78;;
10979;SDS011;5543;51.734;8.744;2023-04-29T07:35:39;5.43;;;3.58;;
10979;SDS011;5543;51.734;8.744;2023-04-29T07:38:11;3.92;;;2.95;;
10979;SDS011;5543;51.734;8.744;2023-04-29T07:40:40;4.68;;;2.75;;
10979;SDS011;5543;51.734;8.744;2023-04-29T07:43:09;3.13;;;2.78;;
10979;SDS011;5543;51.734;8.744;2023-04-29T07:45:38;3.33;;;2.55;;
10979;SDS011;5543;51.734;8.744;2023-04-29T07:48:06;3.88;;;2.63;;
10979;SDS011;5543;51.734;8.744;2023-04-29T07:50:35;3.80;;;2.72;;
10979;SDS011;5543;51.734;8.744;2023-04-29T07:53:03;3.50;;;2.97;;
10979;SDS011;5543;51.734;8.744;2023-04-29T07:55:33;3.35;;;2.53;;
10979;SDS011;5543;51.734;8.744;2023-04-29T07:58:03;2.45;;;2.25;;
10979;SDS011;5543;51.734;8.744;2023-04-29T08:00:31;3.10;;;2.20;;
10979;SDS011;5543;51.734;8.744;2023-04-29T08:03:00;3.28;;;2.53;;
10979;SDS011;5543;51.734;8.744;2023-04-29T08:05:28;2.45;;;2.20;;
10979;SDS011;5543;51.734;8.744;2023-04-29T08:07:57;2.75;;;2.10;;
10979;SDS011;5543;51.734;8.744;2023-04-29T08:10:25;2.60;;;1.77;;
10979;SDS011;5543;51.734;8.744;2023-04-29T08:12:54;3.03;;;2.70;;
10979;SDS011;5543;51.734;8.744;2023-04-29T08:15:23;2.78;;;2.08;;
10979;SDS011;5543;51.734;8.744;2023-04-29T08:17:51;5.32;;;2.97;;
10979;SDS011;5543;51.734;8.744;2023-04-29T08:20:19;4.53;;;2.92;;
10979;SDS011;5543;51.734;8.744;2023-04-29T08:22:47;4.45;;;3.45;;
10979;SDS011;5543;51.734;8.744;2023-04-29T08:25:15;2.85;;;2.30;;
10979;SDS011;5543;51.734;8.744;2023-04-29T08:27:44;2.72;;;2.35;;
10979;SDS011;5543;51.734;8.744;2023-04-29T08:30:14;3.03;;;2.53;;
10979;SDS011;5543;51.734;8.744;2023-04-29T08:32:42;3.17;;;2.72;;
10979;SDS011;5543;51.734;8.744;2023-04-29T08:35:10;3.08;;;2.78;;
10979;SDS011;5543;51.734;8.744;2023-04-29T08:37:38;3.15;;;2.60;;
10979;SDS011;5543;51.734;8.744;2023-04-29T08:40:07;3.00;;;2.47;;
10979;SDS011;5543;51.734;8.744;2023-04-29T08:42:35;3.15;;;2.70;;
10979;SDS011;5543;51.734;8.744;2023-04-29T08:45:04;2.22;;;2.03;;
10979;SDS011;5543;51.734;8.744;2023-04-29T08:47:34;3.38;;;2.70;;
10979;SDS011;5543;51.734;8.744;2023-04-29T08:50:03;3.58;;;2.95;;
10979;SDS011;5543;51.734;8.744;2023-04-29T08:52:32;3.30;;;3.00;;
10979;SDS011;5543;51.734;8.744;2023-04-29T08:55:01;2.85;;;2.45;;
10979;SDS011;5543;51.734;8.744;2023-04-29T08:57:31;3.15;;;2.38;;
10979;SDS011;5543;51.734;8.744;2023-04-29T09:00:05;3.05;;;2.53;;
10979;SDS011;5543;51.734;8.744;2023-04-29T09:02:38;3.50;;;2.78;;
10979;SDS011;5543;51.734;8.744;2023-04-29T09:05:11;3.15;;;2.83;;
10979;SDS011;5543;51.734;8.744;2023-04-29T09:07:40;2.42;;;2.22;;
10979;SDS011;5543;51.734;8.744;2023-04-29T09:10:08;2.85;;;2.45;;
10979;SDS011;5543;51.734;8.744;2023-04-29T09:12:37;2.08;;;1.88;;
10979;SDS011;5543;51.734;8.744;2023-04-29T09:15:06;2.35;;;2.13;;
10979;SDS011;5543;51.734;8.744;2023-04-29T09:17:42;3.60;;;2.92;;
10979;SDS011;5543;51.734;8.744;2023-04-29T09:20:30;2.65;;;2.38;;
10979;SDS011;5543;51.734;8.744;2023-04-29T09:22:58;2.28;;;2.05;;
10979;SDS011;5543;51.734;8.744;2023-04-29T09:25:29;2.42;;;2.22;;
10979;SDS011;5543;51.734;8.744;2023-04-29T09:27:57;2.90;;;2.30;;
10979;SDS011;5543;51.734;8.744;2023-04-29T09:30:44;2.63;;;2.33;;
10979;SDS011;5543;51.734;8.744;2023-04-29T09:33:14;2.33;;;2.13;;
10979;SDS011;5543;51.734;8.744;2023-04-29T09:35:42;2.03;;;1.92;;
10979;SDS011;5543;51.734;8.744;2023-04-29T09:38:12;3.00;;;2.10;;
10979;SDS011;5543;51.734;8.744;2023-04-29T09:40:42;3.75;;;2.15;;
10979;SDS011;5543;51.734;8.744;2023-04-29T09:43:23;3.00;;;2.60;;
10979;SDS011;5543;51.734;8.744;2023-04-29T09:45:52;2.05;;;1.85;;
10979;SDS011;5543;51.734;8.744;2023-04-29T09:48:22;1.98;;;1.52;;
10979;SDS011;5543;51.734;8.744;2023-04-29T09:50:59;2.92;;;2.50;;
10979;SDS011;5543;51.734;8.744;2023-04-29T09:53:29;3.22;;;2.58;;
10979;SDS011;5543;51.734;8.744;2023-04-29T09:55:58;2.20;;;1.95;;
10979;SDS011;5543;51.734;8.744;2023-04-29T09:58:28;1.75;;;1.58;;
10979;SDS011;5543;51.734;8.744;2023-04-29T10:00:59;2.50;;;1.83;;
10979;SDS011;5543;51.734;8.744;2023-04-29T10:03:32;2.67;;;1.90;;
10979;SDS011;5543;51.734;8.744;2023-04-29T10:06:01;2.15;;;1.95;;
10979;SDS011;5543;51.734;8.744;2023-04-29T10:08:31;2.05;;;1.95;;
10979;SDS011;5543;51.734;8.744;2023-04-29T10:11:01;2.28;;;2.00;;
10979;SDS011;5543;51.734;8.744;2023-04-29T10:13:31;3.17;;;2.20;;
10979;SDS011;5543;51.734;8.744;2023-04-29T10:16:06;3.28;;;2.13;;
10979;SDS011;5543;51.734;8.744;2023-04-29T10:18:43;3.30;;;2.47;;
10979;SDS011;5543;51.734;8.744;2023-04-29T10:21:19;2.78;;;2.30;;
10979;SDS011;5543;51.734;8.744;2023-04-29T10:23:51;3.08;;;2.10;;
10979;SDS011;5543;51.734;8.744;2023-04-29T10:26:21;2.75;;;2.55;;
10979;SDS011;5543;51.734;8.744;2023-04-29T10:28:51;2.17;;;1.60;;
10979;SDS011;5543;51.734;8.744;2023-04-29T10:31:24;2.30;;;2.10;;
10979;SDS011;5543;51.734;8.744;2023-04-29T10:33:55;2.83;;;2.50;;
10979;SDS011;5543;51.734;8.744;2023-04-29T10:36:24;2.33;;;1.90;;
10979;SDS011;5543;51.734;8.744;2023-04-29T10:38:56;2.30;;;1.80;;
10979;SDS011;5543;51.734;8.744;2023-04-29T10:41:27;2.08;;;1.88;;
10979;SDS011;5543;51.734;8.744;2023-04-29T10:44:00;2.55;;;2.13;;
10979;SDS011;5543;51.734;8.744;2023-04-29T10:46:30;2.67;;;2.08;;
10979;SDS011;5543;51.734;8.744;2023-04-29T10:49:00;2.65;;;2.08;;
10979;SDS011;5543;51.734;8.744;2023-04-29T10:51:30;2.25;;;2.00;;
10979;SDS011;5543;51.734;8.744;2023-04-29T10:54:00;3.00;;;2.17;;
10979;SDS011;5543;51.734;8.744;2023-04-29T10:56:39;2.08;;;1.85;;
10979;SDS011;5543;51.734;8.744;2023-04-29T10:59:09;2.00;;;1.67;;
10979;SDS011;5543;51.734;8.744;2023-04-29T11:01:42;2.20;;;2.00;;
10979;SDS011;5543;51.734;8.744;2023-04-29T11:04:13;3.58;;;2.58;;
10979;SDS011;5543;51.734;8.744;2023-04-29T11:06:46;2.45;;;1.80;;
10979;SDS011;5543;51.734;8.744;2023-04-29T11:09:18;3.35;;;2.20;;
10979;SDS011;5543;51.734;8.744;2023-04-29T11:11:57;2.50;;;2.03;;
10979;SDS011;5543;51.734;8.744;2023-04-29T11:14:29;2.03;;;1.83;;
10979;SDS011;5543;51.734;8.744;2023-04-29T11:17:00;2.92;;;2.22;;
10979;SDS011;5543;51.734;8.744;2023-04-29T11:19:31;2.47;;;1.92;;
10979;SDS011;5543;51.734;8.744;2023-04-29T11:22:07;3.22;;;2.03;;
10979;SDS011;5543;51.734;8.744;2023-04-29T11:24:51;2.22;;;1.65;;
10979;SDS011;5543;51.734;8.744;2023-04-29T11:27:21;2.13;;;1.73;;
10979;SDS011;5543;51.734;8.744;2023-04-29T11:29:52;1.90;;;1.80;;
10979;SDS011;5543;51.734;8.744;2023-04-29T11:32:27;1.77;;;1.27;;
10979;SDS011;5543;51.734;8.744;2023-04-29T11:35:07;1.60;;;1.50;;
10979;SDS011;5543;51.734;8.744;2023-04-29T11:37:37;2.15;;;1.95;;
10979;SDS011;5543;51.734;8.744;2023-04-29T11:40:07;1.20;;;1.10;;
10979;SDS011;5543;51.734;8.744;2023-04-29T11:42:39;1.77;;;1.55;;
10979;SDS011;5543;51.734;8.744;2023-04-29T11:45:09;1.65;;;1.52;;
10979;SDS011;5543;51.734;8.744;2023-04-29T11:47:40;2.28;;;2.08;;
10979;SDS011;5543;51.734;8.744;2023-04-29T11:50:12;2.05;;;1.50;;
10979;SDS011;5543;51.734;8.744;2023-04-29T11:52:43;1.63;;;1.50;;
10979;SDS011;5543;51.734;8.744;2023-04-29T11:55:13;2.08;;;1.60;;
10979;SDS011;5543;51.734;8.744;2023-04-29T11:57:41;2.20;;;1.58;;
10979;SDS011;5543;51.734;8.744;2023-04-29T12:00:09;1.60;;;1.50;;
10979;SDS011;5543;51.734;8.744;2023-04-29T12:02:42;2.03;;;1.48;;
10979;SDS011;5543;51.734;8.744;2023-04-29T12:05:13;2.20;;;1.98;;
10979;SDS011;5543;51.734;8.744;2023-04-29T12:07:43;1.27;;;1.17;;
10979;SDS011;5543;51.734;8.744;2023-04-29T12:10:11;1.70;;;1.60;;
10979;SDS011;5543;51.734;8.744;2023-04-29T12:12:39;1.65;;;1.55;;
10979;SDS011;5543;51.734;8.744;2023-04-29T12:15:09;2.30;;;2.10;;
10979;SDS011;5543;51.734;8.744;2023-04-29T12:17:38;1.95;;;1.48;;
10979;SDS011;5543;51.734;8.744;2023-04-29T12:20:07;1.98;;;1.70;;
10979;SDS011;5543;51.734;8.744;2023-04-29T12:22:37;1.83;;;1.67;;
10979;SDS011;5543;51.734;8.744;2023-04-29T12:25:06;1.60;;;1.38;;
10979;SDS011;5543;51.734;8.744;2023-04-29T12:27:35;2.35;;;2.15;;
10979;SDS011;5543;51.734;8.744;2023-04-29T12:30:06;2.47;;;1.83;;
10979;SDS011;5543;51.734;8.744;2023-04-29T12:32:35;2.22;;;1.98;;
10979;SDS011;5543;51.734;8.744;2023-04-29T12:35:04;2.15;;;1.35;;
10979;SDS011;5543;51.734;8.744;2023-04-29T12:37:43;1.73;;;1.60;;
10979;SDS011;5543;51.734;8.744;2023-04-29T12:40:14;1.65;;;1.55;;
10979;SDS011;5543;51.734;8.744;2023-04-29T12:42:45;1.42;;;1.23;;
10979;SDS011;5543;51.734;8.744;2023-04-29T12:45:26;2.47;;;1.83;;
10979;SDS011;5543;51.734;8.744;2023-04-29T12:47:56;2.78;;;2.40;;
10979;SDS011;5543;51.734;8.744;2023-04-29T12:50:30;1.55;;;1.45;;
10979;SDS011;5543;51.734;8.744;2023-04-29T12:53:01;2.17;;;1.70;;
10979;SDS011;5543;51.734;8.744;2023-04-29T12:55:30;2.03;;;1.70;;
10979;SDS011;5543;51.734;8.744;2023-04-29T12:58:00;1.50;;;1.40;;
10979;SDS011;5543;51.734;8.744;2023-04-29T13:00:29;2.10;;;1.90;;
10979;SDS011;5543;51.734;8.744;2023-04-29T13:02:57;1.77;;;1.52;;
10979;SDS011;5543;51.734;8.744;2023-04-29T13:05:26;2.00;;;1.75;;
10979;SDS011;5543;51.734;8.744;2023-04-29T13:07:54;1.50;;;1.17;;
10979;SDS011;5543;51.734;8.744;2023-04-29T13:10:24;1.50;;;1.40;;
10979;SDS011;5543;51.734;8.744;2023-04-29T13:12:53;1.70;;;1.40;;
10979;SDS011;5543;51.734;8.744;2023-04-29T13:15:22;2.05;;;1.58;;
10979;SDS011;5543;51.734;8.744;2023-04-29T13:17:50;2.42;;;1.98;;
10979;SDS011;5543;51.734;8.744;2023-04-29T13:20:18;2.08;;;1.55;;
10979;SDS011;5543;51.734;8.744;2023-04-29T13:22:47;2.25;;;1.88;;
10979;SDS011;5543;51.734;8.744;2023-04-29T13:25:15;2.15;;;1.80;;
10979;SDS011;5543;51.734;8.744;2023-04-29T13:27:45;2.28;;;1.80;;
10979;SDS011;5543;51.734;8.744;2023-04-29T13:30:13;2.47;;;1.88;;
10979;SDS011;5543;51.734;8.744;2023-04-29T13:32:42;2.40;;;1.85;;
10979;SDS011;5543;51.734;8.744;2023-04-29T13:35:20;1.88;;;1.65;;
10979;SDS011;5543;51.734;8.744;2023-04-29T13:37:48;1.80;;;1.70;;
10979;SDS011;5543;51.734;8.744;2023-04-29T13:40:17;1.55;;;1.45;;
10979;SDS011;5543;51.734;8.744;2023-04-29T13:42:48;2.88;;;1.98;;
10979;SDS011;5543;51.734;8.744;2023-04-29T13:45:29;1.42;;;1.33;;
10979;SDS011;5543;51.734;8.744;2023-04-29T13:47:57;2.88;;;2.47;;
10979;SDS011;5543;51.734;8.744;2023-04-29T13:50:29;1.73;;;1.30;;
10979;SDS011;5543;51.734;8.744;2023-04-29T13:53:00;1.85;;;1.60;;
10979;SDS011;5543;51.734;8.744;2023-04-29T13:55:31;1.67;;;1.58;;
10979;SDS011;5543;51.734;8.744;2023-04-29T13:58:04;2.60;;;1.90;;
10979;SDS011;5543;51.734;8.744;2023-04-29T14:00:36;1.45;;;1.35;;
10979;SDS011;5543;51.734;8.744;2023-04-29T14:03:24;1.52;;;1.42;;
10979;SDS011;5543;51.734;8.744;2023-04-29T14:05:53;1.63;;;1.50;;
10979;SDS011;5543;51.734;8.744;2023-04-29T14:08:21;1.75;;;1.65;;
10979;SDS011;5543;51.734;8.744;2023-04-29T14:10:49;1.92;;;1.70;;
10979;SDS011;5543;51.734;8.744;2023-04-29T14:13:19;1.60;;;1.50;;
10979;SDS011;5543;51.734;8.744;2023-04-29T14:15:47;1.38;;;1.27;;
10979;SDS011;5543;51.734;8.744;2023-04-29T14:18:15;1.80;;;1.70;;
10979;SDS011;5543;51.734;8.744;2023-04-29T14:20:43;1.40;;;1.30;;
10979;SDS011;5543;51.734;8.744;2023-04-29T14:23:12;1.60;;;1.50;;
10979;SDS011;5543;51.734;8.744;2023-04-29T14:25:40;1.52;;;1.20;;
10979;SDS011;5543;51.734;8.744;2023-04-29T14:28:11;1.67;;;1.58;;
10979;SDS011;5543;51.734;8.744;2023-04-29T14:30:40;1.58;;;1.48;;
10979;SDS011;5543;51.734;8.744;2023-04-29T14:33:12;1.40;;;1.30;;
10979;SDS011;5543;51.734;8.744;2023-04-29T14:35:40;1.80;;;1.50;;
10979;SDS011;5543;51.734;8.744;2023-04-29T14:38:08;2.13;;;1.27;;
10979;SDS011;5543;51.734;8.744;2023-04-29T14:40:36;1.52;;;1.42;;
10979;SDS011;5543;51.734;8.744;2023-04-29T14:43:04;2.47;;;1.75;;
10979;SDS011;5543;51.734;8.744;2023-04-29T14:45:33;2.20;;;1.58;;
10979;SDS011;5543;51.734;8.744;2023-04-29T14:48:04;2.28;;;1.90;;
10979;SDS011;5543;51.734;8.744;2023-04-29T14:50:33;4.45;;;2.35;;
10979;SDS011;5543;51.734;8.744;2023-04-29T14:53:03;1.83;;;1.55;;
10979;SDS011;5543;51.734;8.744;2023-04-29T14:55:33;1.30;;;1.20;;
10979;SDS011;5543;51.734;8.744;2023-04-29T14:58:01;1.48;;;1.38;;
10979;SDS011;5543;51.734;8.744;2023-04-29T15:00:30;1.58;;;1.48;;
10979;SDS011;5543;51.734;8.744;2023-04-29T15:02:58;1.17;;;1.10;;
10979;SDS011;5543;51.734;8.744;2023-04-29T15:05:30;1.15;;;1.08;;
10979;SDS011;5543;51.734;8.744;2023-04-29T15:07:59;1.77;;;1.45;;
10979;SDS011;5543;51.734;8.744;2023-04-29T15:10:27;1.55;;;1.45;;
10979;SDS011;5543;51.734;8.744;2023-04-29T15:12:56;9.10;;;1.35;;
10979;SDS011;5543;51.734;8.744;2023-04-29T15:15:24;1.17;;;1.08;;